Beach Haven, New Jersey
Current Conditions -  °F | °C
As of 11:35 AM on Thursday 23 Oct 2014 (Local Time) from KACY Reporting Station
Overcast Overcast  
Wind Chill: 51°   Ceiling: 1700
Heat Index: 51°   Visibility: 10mi
Dew Point: 48°   Wind: 18mph
Humidity: 89%   Direction: 320°NW
Pressure: 29.74"   Gusts: NA
Location:  39.56°N, 74.24°W
Report Text: KACY 231535Z 32016KT 10SM OVC017 11/09 A2974 RMK AO2 RAB08E19 P0000 T01060089
Loading
Personal Weather Stations






























Interactive Weather Map New forecast layout! Learn more

10-Day Weather Forecast

Advertisements
Track Severe Weather on mobile